Time;durP1;ratioP1;P1;durP2;ratioP2;P2;SDS_P1;SDS_P2;PMS_P1;PMS_P2;Temp;Humidity;BMP_temperature;BMP_pressure;BME280_temperature;BME280_humidity;BME280_pressure;Samples;Min_cycle;Max_cycle;Signal;HPM_P1;HPM_P2
2022/06/24 00:02:12;;;;;;;3.47;2.00;;;;;;;;;;5083159;28;20063;-91
2022/06/24 00:04:39;;;;;;;5.07;2.00;;;;;;;;;;5096784;28;20037;-90
2022/06/24 00:07:16;;;;;;;2.78;1.92;;;;;;;;;;5064118;28;20113;-89
2022/06/24 00:10:12;;;;;;;3.78;2.47;;;;;;;;;;5063674;28;20082;-89
2022/06/24 00:12:39;;;;;;;4.10;2.20;;;;;;;;;;5096753;28;20036;-91
2022/06/24 00:15:08;;;;;;;3.20;1.95;;;;;;;;;;5079776;28;20051;-91
2022/06/24 00:17:39;;;;;;;5.20;2.08;;;;;;;;;;5066771;28;20048;-90
2022/06/24 00:20:15;;;;;;;3.92;2.03;;;;;;;;;;5063999;28;20044;-91
2022/06/24 00:23:08;;;;;;;3.58;1.80;;;;;;;;;;5079157;28;20036;-91
2022/06/24 00:25:38;;;;;;;2.42;1.63;;;;;;;;;;5062696;28;20086;-91
2022/06/24 00:28:13;;;;;;;5.28;1.92;;;;;;;;;;5058845;28;20044;-89
2022/06/24 00:30:51;;;;;;;3.47;2.08;;;;;;;;;;5061349;28;20930;-88
2022/06/24 00:33:31;;;;;;;4.10;2.17;;;;;;;;;;5062962;28;20597;-89
2022/06/24 00:35:59;;;;;;;4.70;2.20;;;;;;;;;;5062935;28;20048;-88
2022/06/24 00:38:33;;;;;;;3.13;1.88;;;;;;;;;;5056588;28;20044;-89
2022/06/24 00:41:13;;;;;;;3.28;1.98;;;;;;;;;;5059619;28;20064;-86
2022/06/24 00:43:49;;;;;;;3.00;1.92;;;;;;;;;;5063177;28;20043;-87
2022/06/24 00:46:37;;;;;;;3.40;1.80;;;;;;;;;;5080709;28;20041;-87
2022/06/24 00:49:09;;;;;;;3.92;1.90;;;;;;;;;;5064597;28;20041;-87
2022/06/24 00:51:38;;;;;;;4.50;2.10;;;;;;;;;;5068837;28;20036;-88
2022/06/24 00:54:13;;;;;;;5.00;2.00;;;;;;;;;;5066627;28;20129;-87
2022/06/24 00:56:42;;;;;;;3.85;2.10;;;;;;;;;;5065458;28;20479;-88
2022/06/24 00:59:17;;;;;;;3.30;2.00;;;;;;;;;;5063161;28;20037;-88
2022/06/24 01:01:49;;;;;;;5.32;2.38;;;;;;;;;;5078629;28;20056;-94
2022/06/24 01:04:31;;;;;;;3.47;1.90;;;;;;;;;;5072211;28;20028;-93
2022/06/24 01:07:00;;;;;;;4.15;2.00;;;;;;;;;;5034035;28;20048;-95
2022/06/24 01:12:46;;;;;;;5.10;2.05;;;;;;;;;;5106537;28;20394;-96
2022/06/24 01:15:39;;;;;;;4.22;2.30;;;;;;;;;;5103498;28;20036;-96
2022/06/24 01:18:31;;;;;;;3.30;2.00;;;;;;;;;;5089251;28;20039;-96
2022/06/24 01:21:00;;;;;;;3.95;2.08;;;;;;;;;;5079972;28;20121;-96
2022/06/24 01:24:03;;;;;;;3.38;2.30;;;;;;;;;;5072897;28;20028;-95
2022/06/24 01:26:29;;;;;;;7.75;3.20;;;;;;;;;;5071521;28;20040;-96
2022/06/24 01:28:57;;;;;;;4.10;2.17;;;;;;;;;;5098195;28;20066;-96
2022/06/24 01:31:26;;;;;;;4.60;1.83;;;;;;;;;;5066189;28;20036;-96
2022/06/24 01:34:18;;;;;;;4.25;2.05;;;;;;;;;;5094473;28;20059;-96
2022/06/24 01:36:48;;;;;;;3.38;2.05;;;;;;;;;;5061087;28;20509;-96
2022/06/24 01:39:15;;;;;;;3.38;2.20;;;;;;;;;;5076340;28;20048;-95
2022/06/24 01:41:48;;;;;;;3.97;2.15;;;;;;;;;;5054319;28;20037;-96
2022/06/24 01:44:22;;;;;;;3.20;1.90;;;;;;;;;;5075999;28;20041;-95
2022/06/24 01:47:15;;;;;;;3.75;2.10;;;;;;;;;;5072397;28;20051;-95
2022/06/24 01:49:43;;;;;;;2.85;1.90;;;;;;;;;;5092938;28;20390;-96
2022/06/24 01:52:12;;;;;;;4.30;2.38;;;;;;;;;;5087552;28;20132;-88
2022/06/24 01:55:04;;;;;;;4.07;2.22;;;;;;;;;;5063544;28;20603;-88
2022/06/24 01:57:31;;;;;;;4.18;2.00;;;;;;;;;;5066877;28;20047;-94
2022/06/24 02:00:00;;;;;;;3.22;2.03;;;;;;;;;;5067863;28;20041;-93
2022/06/24 02:02:33;;;;;;;3.53;2.00;;;;;;;;;;5070681;28;21085;-96
2022/06/24 02:05:08;;;;;;;7.85;2.28;;;;;;;;;;5055705;28;20132;-96
2022/06/24 02:07:59;;;;;;;4.45;2.40;;;;;;;;;;5057750;28;20390;-96
2022/06/24 02:13:45;;;;;;;5.90;2.20;;;;;;;;;;5109842;27;20051;-96
2022/06/24 02:16:15;;;;;;;5.40;2.35;;;;;;;;;;5090869;28;20036;-96
2022/06/24 02:19:08;;;;;;;5.20;2.00;;;;;;;;;;5074495;28;20072;-96
2022/06/24 02:21:36;;;;;;;4.55;2.13;;;;;;;;;;5052632;28;20051;-95
2022/06/24 02:24:04;;;;;;;4.60;1.80;;;;;;;;;;5091954;28;20486;-96
2022/06/24 02:26:32;;;;;;;3.25;1.85;;;;;;;;;;5078935;28;20040;-95
2022/06/24 02:29:00;;;;;;;3.40;2.08;;;;;;;;;;5097900;28;20047;-95
2022/06/24 02:31:27;;;;;;;3.97;2.00;;;;;;;;;;5081272;28;20056;-88
2022/06/24 02:33:59;;;;;;;3.47;2.17;;;;;;;;;;5063861;28;20072;-88
2022/06/24 02:36:28;;;;;;;3.25;1.85;;;;;;;;;;5066718;28;20044;-94
2022/06/24 02:39:19;;;;;;;5.57;2.42;;;;;;;;;;5087626;28;20509;-94
2022/06/24 02:41:47;;;;;;;4.35;2.20;;;;;;;;;;5072412;28;20041;-94
2022/06/24 02:44:19;;;;;;;5.18;2.30;;;;;;;;;;5054400;28;20040;-94
2022/06/24 02:46:47;;;;;;;4.43;2.30;;;;;;;;;;5102325;28;20536;-94
2022/06/24 02:49:25;;;;;;;6.20;2.17;;;;;;;;;;5042101;28;20052;-95
2022/06/24 02:52:17;;;;;;;3.28;1.90;;;;;;;;;;5073709;28;20045;-94
2022/06/24 02:54:45;;;;;;;6.18;2.13;;;;;;;;;;5105572;28;20035;-94
2022/06/24 02:57:18;;;;;;;3.83;2.08;;;;;;;;;;5070177;28;20067;-95
2022/06/24 02:59:45;;;;;;;5.85;1.92;;;;;;;;;;5102439;28;20040;-94
2022/06/24 03:02:14;;;;;;;3.95;2.30;;;;;;;;;;5072993;28;20066;-94
2022/06/24 03:04:45;;;;;;;3.88;1.98;;;;;;;;;;5088550;28;20100;-93
2022/06/24 03:07:17;;;;;;;6.65;2.38;;;;;;;;;;5084767;28;20078;-95
2022/06/24 03:09:45;;;;;;;4.00;2.38;;;;;;;;;;5070583;28;20041;-94
2022/06/24 03:12:13;;;;;;;4.25;2.17;;;;;;;;;;5084925;28;20555;-94
2022/06/24 03:14:41;;;;;;;3.60;2.25;;;;;;;;;;5070401;28;20118;-94
2022/06/24 03:17:11;;;;;;;3.40;2.08;;;;;;;;;;5066571;28;20036;-94
2022/06/24 03:19:39;;;;;;;5.88;2.05;;;;;;;;;;5067927;28;20071;-94
2022/06/24 03:22:07;;;;;;;4.10;2.30;;;;;;;;;;5083571;28;20055;-94
2022/06/24 03:24:59;;;;;;;3.72;2.22;;;;;;;;;;5062164;28;20021;-94
2022/06/24 03:27:37;;;;;;;3.38;2.05;;;;;;;;;;5066247;28;20045;-94
2022/06/24 03:30:07;;;;;;;3.50;2.20;;;;;;;;;;5065645;28;20123;-94
2022/06/24 03:32:36;;;;;;;4.00;2.50;;;;;;;;;;5068643;28;20079;-94
2022/06/24 03:35:09;;;;;;;3.20;2.00;;;;;;;;;;5085052;28;20036;-94
2022/06/24 03:38:02;;;;;;;4.45;2.17;;;;;;;;;;5097702;28;20143;-94
2022/06/24 03:40:33;;;;;;;4.15;2.28;;;;;;;;;;5099127;28;20036;-94
2022/06/24 03:43:01;;;;;;;5.30;2.30;;;;;;;;;;5063121;28;20064;-94
2022/06/24 03:45:33;;;;;;;4.45;2.15;;;;;;;;;;5097574;28;20037;-94
2022/06/24 03:48:01;;;;;;;4.20;2.50;;;;;;;;;;5079400;28;20055;-92
2022/06/24 03:50:33;;;;;;;3.65;2.30;;;;;;;;;;5065821;28;20151;-93
2022/06/24 03:53:01;;;;;;;5.30;2.20;;;;;;;;;;5096570;28;20036;-92
2022/06/24 03:55:29;;;;;;;4.10;2.38;;;;;;;;;;5061810;28;20833;-93
2022/06/24 03:57:57;;;;;;;4.85;2.17;;;;;;;;;;5066521;28;20048;-93
2022/06/24 04:00:25;;;;;;;3.95;2.30;;;;;;;;;;5065534;28;20045;-91
2022/06/24 04:02:53;;;;;;;3.95;2.20;;;;;;;;;;5079136;28;20155;-92
2022/06/24 04:05:21;;;;;;;3.83;2.63;;;;;;;;;;5063826;28;20108;-92
2022/06/24 04:07:49;;;;;;;5.35;2.50;;;;;;;;;;5066332;28;20047;-93
2022/06/24 04:10:21;;;;;;;5.72;2.45;;;;;;;;;;5064000;28;20037;-87
2022/06/24 04:13:13;;;;;;;4.70;2.25;;;;;;;;;;5064166;28;20043;-88
2022/06/24 04:15:49;;;;;;;4.32;2.60;;;;;;;;;;5061877;28;20085;-88
2022/06/24 04:18:17;;;;;;;6.60;2.67;;;;;;;;;;5063010;28;20612;-88
2022/06/24 04:21:16;;;;;;;5.30;2.40;;;;;;;;;;5073144;28;20044;-88
2022/06/24 04:23:50;;;;;;;3.85;2.35;;;;;;;;;;5064374;28;20118;-88
2022/06/24 04:26:23;;;;;;;4.70;2.47;;;;;;;;;;5063254;28;21010;-88
2022/06/24 04:28:51;;;;;;;4.45;2.47;;;;;;;;;;5064831;28;20040;-88
2022/06/24 04:31:19;;;;;;;7.18;2.75;;;;;;;;;;5062290;28;20040;-88
2022/06/24 04:33:47;;;;;;;6.95;2.75;;;;;;;;;;5066998;28;20532;-87
2022/06/24 04:36:19;;;;;;;4.95;2.30;;;;;;;;;;5062605;28;20047;-94
2022/06/24 04:38:48;;;;;;;5.88;2.53;;;;;;;;;;5088677;28;20040;-94
2022/06/24 04:41:41;;;;;;;4.97;2.60;;;;;;;;;;5071571;28;20125;-96
2022/06/24 04:44:09;;;;;;;3.33;2.25;;;;;;;;;;5092114;28;20049;-95
2022/06/24 04:46:38;;;;;;;3.75;2.53;;;;;;;;;;5093254;28;20053;-96
2022/06/24 04:49:14;;;;;;;5.07;2.70;;;;;;;;;;5081536;28;20062;-96
2022/06/24 04:51:46;;;;;;;5.68;2.80;;;;;;;;;;5095521;28;20074;-96
2022/06/24 04:54:42;;;;;;;4.97;2.90;;;;;;;;;;5100041;28;20045;-96
2022/06/24 04:57:11;;;;;;;8.57;3.08;;;;;;;;;;5076007;28;20068;-96
2022/06/24 04:59:40;;;;;;;4.85;2.67;;;;;;;;;;5038580;28;20524;-96
2022/06/24 05:02:08;;;;;;;4.22;2.70;;;;;;;;;;5065875;28;20151;-94
2022/06/24 05:04:36;;;;;;;3.75;2.65;;;;;;;;;;5057179;28;20040;-93
2022/06/24 05:07:04;;;;;;;4.95;2.92;;;;;;;;;;5071999;28;20036;-93
2022/06/24 05:09:32;;;;;;;4.47;2.85;;;;;;;;;;5070371;28;20532;-85
2022/06/24 05:12:24;;;;;;;5.75;2.80;;;;;;;;;;5066569;28;20051;-85
2022/06/24 05:15:15;;;;;;;4.38;2.80;;;;;;;;;;5067296;28;20068;-85
2022/06/24 05:17:47;;;;;;;6.32;2.83;;;;;;;;;;5064002;28;20049;-84
2022/06/24 05:20:15;;;;;;;5.45;2.85;;;;;;;;;;5065704;28;20505;-83
2022/06/24 05:22:43;;;;;;;5.63;2.75;;;;;;;;;;5062377;28;20066;-84
2022/06/24 05:25:41;;;;;;;5.22;2.90;;;;;;;;;;5062031;28;20117;-84
2022/06/24 05:28:09;;;;;;;6.40;2.67;;;;;;;;;;5060452;28;20044;-83
2022/06/24 05:30:37;;;;;;;7.65;2.85;;;;;;;;;;5063227;28;20506;-84
2022/06/24 05:36:00;;;;;;;4.97;2.95;;;;;;;;;;5065130;28;20127;-85
2022/06/24 05:38:36;;;;;;;6.72;2.72;;;;;;;;;;5065015;28;20585;-84
2022/06/24 05:41:12;;;;;;;6.47;3.38;;;;;;;;;;5064684;28;20044;-84
2022/06/24 05:43:40;;;;;;;8.05;2.75;;;;;;;;;;5065601;28;20048;-83
2022/06/24 05:46:12;;;;;;;5.68;3.28;;;;;;;;;;5065104;28;20968;-84
2022/06/24 05:49:06;;;;;;;4.50;3.03;;;;;;;;;;5065704;28;20044;-83
2022/06/24 05:51:36;;;;;;;10.82;3.38;;;;;;;;;;5057418;28;20045;-85
2022/06/24 05:56:55;;;;;;;6.18;2.75;;;;;;;;;;5066299;28;20514;-83
2022/06/24 05:59:28;;;;;;;6.38;3.03;;;;;;;;;;5065121;28;20048;-83
2022/06/24 06:02:00;;;;;;;4.80;3.13;;;;;;;;;;5066002;28;20045;-84
2022/06/24 06:04:27;;;;;;;4.72;3.00;;;;;;;;;;5066742;28;20075;-83
2022/06/24 06:06:55;;;;;;;4.78;3.00;;;;;;;;;;5065685;28;20045;-84
2022/06/24 06:09:48;;;;;;;6.57;3.13;;;;;;;;;;5066813;28;20066;-84
2022/06/24 06:12:15;;;;;;;5.30;3.03;;;;;;;;;;5064769;28;20430;-85
2022/06/24 06:14:44;;;;;;;5.47;3.08;;;;;;;;;;5057985;28;20056;-85
2022/06/24 06:17:11;;;;;;;4.63;3.10;;;;;;;;;;5063721;28;20127;-84
2022/06/24 06:19:39;;;;;;;4.05;3.00;;;;;;;;;;5064586;28;20544;-86
2022/06/24 06:22:07;;;;;;;4.88;3.00;;;;;;;;;;5065722;28;20145;-84
2022/06/24 06:24:39;;;;;;;8.55;2.90;;;;;;;;;;5066044;28;20148;-85
2022/06/24 06:27:08;;;;;;;4.68;2.80;;;;;;;;;;5063545;28;20044;-85
2022/06/24 06:29:35;;;;;;;4.90;3.42;;;;;;;;;;5066399;28;20190;-84
2022/06/24 06:32:04;;;;;;;4.68;2.85;;;;;;;;;;5078515;28;20131;-85
2022/06/24 06:34:37;;;;;;;4.32;2.88;;;;;;;;;;5064990;28;20044;-85
2022/06/24 06:37:11;;;;;;;4.43;3.00;;;;;;;;;;5051243;28;20044;-84
2022/06/24 06:39:37;;;;;;;5.68;2.92;;;;;;;;;;5066403;28;20521;-84
2022/06/24 06:42:31;;;;;;;3.80;2.70;;;;;;;;;;5062712;28;20036;-85
2022/06/24 06:45:00;;;;;;;5.63;2.90;;;;;;;;;;5067562;28;20045;-84
2022/06/24 06:47:28;;;;;;;7.10;3.75;;;;;;;;;;5063332;28;20040;-84
2022/06/24 06:49:55;;;;;;;7.68;2.83;;;;;;;;;;5064959;28;20070;-84
2022/06/24 06:52:49;;;;;;;6.78;3.05;;;;;;;;;;5065864;28;20048;-85
2022/06/24 06:55:22;;;;;;;6.15;3.70;;;;;;;;;;5068255;28;20405;-85
2022/06/24 06:57:55;;;;;;;5.70;3.10;;;;;;;;;;5067268;28;20043;-84
2022/06/24 07:00:27;;;;;;;7.57;3.17;;;;;;;;;;5066125;28;20414;-85
2022/06/24 07:02:55;;;;;;;9.02;3.40;;;;;;;;;;5065229;28;20063;-84
2022/06/24 07:05:27;;;;;;;6.70;3.05;;;;;;;;;;5095203;28;20033;-85
2022/06/24 07:07:59;;;;;;;4.57;2.78;;;;;;;;;;5065728;28;20409;-85
2022/06/24 07:10:27;;;;;;;5.28;3.40;;;;;;;;;;5064904;28;20059;-85
2022/06/24 07:13:21;;;;;;;5.70;3.08;;;;;;;;;;5065038;28;20050;-84
2022/06/24 07:15:49;;;;;;;5.68;3.17;;;;;;;;;;5093852;28;20103;-86
2022/06/24 07:18:17;;;;;;;5.32;3.00;;;;;;;;;;5063074;28;20040;-85
2022/06/24 07:20:49;;;;;;;4.10;3.05;;;;;;;;;;5065164;28;20072;-85
2022/06/24 07:23:17;;;;;;;5.18;3.15;;;;;;;;;;5065742;28;20046;-85
2022/06/24 07:25:49;;;;;;;5.32;3.20;;;;;;;;;;5065899;28;20131;-85
2022/06/24 07:28:17;;;;;;;4.97;3.30;;;;;;;;;;5064423;28;20064;-85
2022/06/24 07:30:45;;;;;;;6.25;3.17;;;;;;;;;;5064548;28;20537;-86
2022/06/24 07:33:13;;;;;;;6.00;3.33;;;;;;;;;;5062994;28;20051;-85
2022/06/24 07:36:05;;;;;;;5.18;3.10;;;;;;;;;;5062985;28;20123;-86
2022/06/24 07:38:38;;;;;;;5.97;3.13;;;;;;;;;;5058581;28;20044;-85
2022/06/24 07:41:10;;;;;;;4.57;3.10;;;;;;;;;;5078855;28;20060;-86
2022/06/24 07:43:41;;;;;;;4.97;3.22;;;;;;;;;;5057594;28;20521;-86
2022/06/24 07:46:33;;;;;;;5.68;3.20;;;;;;;;;;5071743;28;20033;-85
2022/06/24 07:49:01;;;;;;;5.53;3.35;;;;;;;;;;5067997;28;20063;-85
2022/06/24 07:51:29;;;;;;;7.57;3.33;;;;;;;;;;5064888;28;20071;-85
2022/06/24 07:54:24;;;;;;;4.75;3.20;;;;;;;;;;5064784;28;20605;-84
2022/06/24 07:56:57;;;;;;;5.75;2.95;;;;;;;;;;5069391;28;20029;-84
2022/06/24 07:59:33;;;;;;;6.50;3.33;;;;;;;;;;5065177;28;20090;-85
2022/06/24 08:02:28;;;;;;;5.97;3.60;;;;;;;;;;5053709;28;20529;-84
2022/06/24 08:04:57;;;;;;;8.32;3.25;;;;;;;;;;5065073;28;20040;-85
2022/06/24 08:07:25;;;;;;;6.70;3.15;;;;;;;;;;5065945;28;20443;-85
2022/06/24 08:09:53;;;;;;;5.20;3.25;;;;;;;;;;5101874;28;20067;-84
2022/06/24 08:12:21;;;;;;;5.95;3.40;;;;;;;;;;5067314;28;20131;-86
2022/06/24 08:14:50;;;;;;;9.98;3.13;;;;;;;;;;5070757;28;20487;-85
2022/06/24 08:17:25;;;;;;;7.35;3.53;;;;;;;;;;5101275;28;20040;-85
2022/06/24 08:20:00;;;;;;;5.47;3.20;;;;;;;;;;5070184;28;20078;-85
2022/06/24 08:22:30;;;;;;;6.18;3.05;;;;;;;;;;5068783;28;20414;-84
2022/06/24 08:25:21;;;;;;;5.25;2.60;;;;;;;;;;5103216;28;20119;-86
2022/06/24 08:27:56;;;;;;;9.50;3.30;;;;;;;;;;5067842;28;20042;-85
2022/06/24 08:30:30;;;;;;;4.18;2.83;;;;;;;;;;5070125;28;20040;-85
2022/06/24 08:32:57;;;;;;;5.38;3.17;;;;;;;;;;5066751;28;20036;-86
2022/06/24 08:35:25;;;;;;;6.15;3.22;;;;;;;;;;5061775;28;20039;-85
2022/06/24 08:37:57;;;;;;;5.88;3.53;;;;;;;;;;5063830;28;20934;-85
2022/06/24 08:40:27;;;;;;;4.40;3.10;;;;;;;;;;5066089;28;20071;-85
2022/06/24 08:42:58;;;;;;;5.88;3.10;;;;;;;;;;5063666;28;20112;-84
2022/06/24 08:45:31;;;;;;;7.40;3.20;;;;;;;;;;5069835;28;20067;-85
2022/06/24 08:47:59;;;;;;;5.78;3.15;;;;;;;;;;5068738;28;20044;-84
2022/06/24 08:50:27;;;;;;;5.03;3.20;;;;;;;;;;5073477;28;20041;-84
2022/06/24 08:52:56;;;;;;;4.78;3.17;;;;;;;;;;5104167;28;20068;-84
2022/06/24 08:55:25;;;;;;;6.72;2.92;;;;;;;;;;5073080;28;20048;-84
2022/06/24 08:58:18;;;;;;;4.95;3.10;;;;;;;;;;5072631;28;20041;-83
2022/06/24 09:00:46;;;;;;;4.93;3.10;;;;;;;;;;5072741;28;20044;-83
2022/06/24 09:03:13;;;;;;;5.05;3.13;;;;;;;;;;5075042;28;20052;-84
2022/06/24 09:05:41;;;;;;;4.18;2.90;;;;;;;;;;5071964;28;20139;-84
2022/06/24 09:08:15;;;;;;;5.82;3.20;;;;;;;;;;5067218;28;20037;-84
2022/06/24 09:13:47;;;;;;;7.90;3.10;;;;;;;;;;5066004;28;20047;-84
2022/06/24 09:16:18;;;;;;;5.13;3.28;;;;;;;;;;5096781;28;20878;-84
2022/06/24 09:18:53;;;;;;;4.22;3.33;;;;;;;;;;5084473;28;20037;-85
2022/06/24 09:21:28;;;;;;;4.72;2.92;;;;;;;;;;5062686;28;20121;-85
2022/06/24 09:24:05;;;;;;;5.97;3.20;;;;;;;;;;5064654;28;20045;-85
2022/06/24 09:26:39;;;;;;;5.25;3.15;;;;;;;;;;5062771;28;20048;-84
2022/06/24 09:29:46;;;;;;;4.35;2.88;;;;;;;;;;5065772;28;20151;-84
2022/06/24 09:32:14;;;;;;;5.40;2.60;;;;;;;;;;5064490;28;20052;-84
2022/06/24 09:35:00;;;;;;;5.80;2.83;;;;;;;;;;5066747;28;20553;-85
2022/06/24 09:37:38;;;;;;;5.95;3.78;;;;;;;;;;5065339;28;20040;-85
2022/06/24 09:40:23;;;;;;;4.55;3.00;;;;;;;;;;5065762;28;20510;-85
2022/06/24 09:43:07;;;;;;;7.82;3.17;;;;;;;;;;5096152;28;20041;-86
2022/06/24 09:45:53;;;;;;;4.47;3.08;;;;;;;;;;5064170;28;20032;-85
2022/06/24 09:48:37;;;;;;;7.20;3.38;;;;;;;;;;5096516;28;20136;-85
2022/06/24 09:51:07;;;;;;;4.03;2.90;;;;;;;;;;5065502;28;20048;-84
2022/06/24 09:53:40;;;;;;;4.03;2.72;;;;;;;;;;5091054;28;20040;-86
2022/06/24 09:56:32;;;;;;;5.75;3.17;;;;;;;;;;5064132;28;20118;-86
2022/06/24 10:02:18;;;;;;;11.55;3.45;;;;;;;;;;5065671;28;20441;-85
2022/06/24 10:04:50;;;;;;;5.63;3.20;;;;;;;;;;5080141;28;20036;-85
2022/06/24 10:07:19;;;;;;;6.25;2.85;;;;;;;;;;5065483;28;20060;-86
2022/06/24 10:09:52;;;;;;;5.85;3.30;;;;;;;;;;5064891;28;20040;-86
2022/06/24 10:12:21;;;;;;;4.20;2.95;;;;;;;;;;5064815;28;20044;-85
2022/06/24 10:15:14;;;;;;;6.40;3.28;;;;;;;;;;5069331;28;20047;-86
2022/06/24 10:17:47;;;;;;;8.18;3.03;;;;;;;;;;5063338;28;20518;-85
2022/06/24 10:20:45;;;;;;;6.25;3.30;;;;;;;;;;5084004;28;20036;-85
2022/06/24 10:23:40;;;;;;;6.63;2.90;;;;;;;;;;5064457;28;20036;-84
2022/06/24 10:26:09;;;;;;;6.40;3.30;;;;;;;;;;5062603;28;20102;-91
2022/06/24 10:29:08;;;;;;;6.50;2.85;;;;;;;;;;5080080;28;20045;-89
2022/06/24 10:31:41;;;;;;;5.78;3.25;;;;;;;;;;5014630;28;20503;-85
2022/06/24 10:34:35;;;;;;;6.15;3.20;;;;;;;;;;5017582;28;20107;-85
2022/06/24 10:37:23;;;;;;;6.57;3.03;;;;;;;;;;5020947;28;20061;-85
2022/06/24 10:39:57;;;;;;;7.70;3.20;;;;;;;;;;5020070;28;20484;-84
2022/06/24 10:42:24;;;;;;;4.97;3.10;;;;;;;;;;5020754;28;20073;-85
2022/06/24 10:45:05;;;;;;;5.05;2.70;;;;;;;;;;5024160;28;20080;-85
2022/06/24 10:47:39;;;;;;;4.82;3.10;;;;;;;;;;5019837;28;20046;-84
2022/06/24 10:50:31;;;;;;;4.70;2.80;;;;;;;;;;5018107;28;20037;-85
2022/06/24 10:53:04;;;;;;;5.55;2.97;;;;;;;;;;5019312;28;20076;-85
2022/06/24 10:55:36;;;;;;;7.28;3.50;;;;;;;;;;5016353;28;20120;-85
2022/06/24 10:58:29;;;;;;;4.97;3.20;;;;;;;;;;5021033;28;20045;-85
2022/06/24 11:01:06;;;;;;;5.88;3.30;;;;;;;;;;5016544;28;20099;-86
2022/06/24 11:03:37;;;;;;;5.70;3.00;;;;;;;;;;5017132;28;20051;-85
2022/06/24 11:06:55;;;;;;;7.88;3.00;;;;;;;;;;5022519;28;20046;-85
2022/06/24 11:09:28;;;;;;;6.18;3.78;;;;;;;;;;5063972;28;20043;-85
2022/06/24 11:11:55;;;;;;;6.72;2.75;;;;;;;;;;5066336;28;20047;-86
2022/06/24 11:14:26;;;;;;;6.18;3.72;;;;;;;;;;5068974;28;20051;-84
2022/06/24 11:17:06;;;;;;;6.03;3.22;;;;;;;;;;5064674;28;20044;-85
2022/06/24 11:20:00;;;;;;;6.85;3.20;;;;;;;;;;5068138;28;20489;-84
2022/06/24 11:22:28;;;;;;;6.43;3.22;;;;;;;;;;5068623;28;20064;-85
2022/06/24 11:25:00;;;;;;;4.82;2.95;;;;;;;;;;5065267;28;20033;-85
2022/06/24 11:27:35;;;;;;;5.28;3.10;;;;;;;;;;5095627;28;20559;-85
2022/06/24 11:30:04;;;;;;;5.25;3.25;;;;;;;;;;5067744;28;20052;-86
2022/06/24 11:32:55;;;;;;;7.10;3.30;;;;;;;;;;5061728;28;20049;-85
2022/06/24 11:35:49;;;;;;;7.05;3.20;;;;;;;;;;5066904;28;20032;-86
2022/06/24 11:38:22;;;;;;;7.30;3.38;;;;;;;;;;5067672;28;20047;-87
2022/06/24 11:40:50;;;;;;;6.30;3.28;;;;;;;;;;5066417;28;20052;-87
2022/06/24 11:46:09;;;;;;;6.47;3.35;;;;;;;;;;5064427;28;20113;-87
2022/06/24 11:48:37;;;;;;;5.13;3.50;;;;;;;;;;5065492;28;20123;-86
2022/06/24 11:51:16;;;;;;;6.50;3.25;;;;;;;;;;5065358;28;20040;-87
2022/06/24 11:54:00;;;;;;;8.00;3.33;;;;;;;;;;5066923;28;20502;-87
2022/06/24 11:56:31;;;;;;;5.78;3.30;;;;;;;;;;5062802;28;20043;-87
2022/06/24 11:59:01;;;;;;;6.20;3.50;;;;;;;;;;5062712;28;20036;-87
2022/06/24 12:01:30;;;;;;;5.07;3.67;;;;;;;;;;5061348;28;20510;-87
2022/06/24 12:04:05;;;;;;;7.15;3.55;;;;;;;;;;5062217;28;20048;-86
2022/06/24 12:06:58;;;;;;;5.35;3.40;;;;;;;;;;5059187;28;20524;-85
2022/06/24 12:09:58;;;;;;;4.70;3.28;;;;;;;;;;5058975;28;20037;-85
2022/06/24 12:12:25;;;;;;;5.65;3.28;;;;;;;;;;5054664;28;20062;-84
2022/06/24 12:14:55;;;;;;;8.73;3.30;;;;;;;;;;5062603;28;20051;-85
2022/06/24 12:17:23;;;;;;;4.63;3.30;;;;;;;;;;5059534;28;20033;-84
2022/06/24 12:20:01;;;;;;;6.32;3.40;;;;;;;;;;5062470;28;20063;-84
2022/06/24 12:22:30;;;;;;;6.45;3.35;;;;;;;;;;5060051;28;20098;-84
2022/06/24 12:25:07;;;;;;;7.47;3.25;;;;;;;;;;5061128;28;20048;-85
2022/06/24 12:28:11;;;;;;;5.35;3.58;;;;;;;;;;5094435;28;20456;-85
2022/06/24 12:30:39;;;;;;;7.43;3.10;;;;;;;;;;5060313;28;20032;-84
2022/06/24 12:33:14;;;;;;;8.05;3.28;;;;;;;;;;5060678;28;20052;-85
2022/06/24 12:36:01;;;;;;;5.55;3.05;;;;;;;;;;5092506;28;20040;-84
2022/06/24 12:38:29;;;;;;;12.55;3.78;;;;;;;;;;5059257;28;20135;-84
2022/06/24 12:41:16;;;;;;;11.10;3.28;;;;;;;;;;5060245;28;20063;-85
2022/06/24 12:43:54;;;;;;;10.32;3.10;;;;;;;;;;5064558;28;20048;-85
2022/06/24 12:52:41;;;;;;;8.85;3.50;;;;;;;;;;5064549;28;20036;-84
2022/06/24 12:55:13;;;;;;;6.85;3.40;;;;;;;;;;5063006;28;20041;-84
2022/06/24 12:57:39;;;;;;;6.97;3.40;;;;;;;;;;5062522;28;20040;-85
2022/06/24 13:00:33;;;;;;;6.88;3.47;;;;;;;;;;5063173;28;20048;-84
2022/06/24 13:03:05;;;;;;;5.38;3.42;;;;;;;;;;5060956;28;20048;-85
2022/06/24 13:05:34;;;;;;;7.32;4.13;;;;;;;;;;5058923;28;20072;-84
2022/06/24 13:08:01;;;;;;;7.82;3.53;;;;;;;;;;5066193;28;20047;-85
2022/06/24 13:10:29;;;;;;;6.82;3.38;;;;;;;;;;5066893;28;20606;-84
2022/06/24 13:13:05;;;;;;;7.78;3.42;;;;;;;;;;5063086;28;20485;-85
2022/06/24 13:15:57;;;;;;;6.78;3.25;;;;;;;;;;5066734;28;20217;-83
2022/06/24 13:18:49;;;;;;;8.85;3.90;;;;;;;;;;5057837;28;20052;-85
2022/06/24 13:21:21;;;;;;;9.07;3.50;;;;;;;;;;5064390;28;20048;-85
2022/06/24 13:23:50;;;;;;;8.40;4.10;;;;;;;;;;5082498;28;20040;-84
2022/06/24 13:26:17;;;;;;;9.30;3.20;;;;;;;;;;5064501;28;20058;-85
2022/06/24 13:28:45;;;;;;;7.47;3.03;;;;;;;;;;5063884;28;20590;-84
2022/06/24 13:31:13;;;;;;;6.35;3.65;;;;;;;;;;5061016;28;20062;-85
2022/06/24 13:33:41;;;;;;;8.13;3.10;;;;;;;;;;5061762;28;20080;-84
2022/06/24 13:36:09;;;;;;;7.30;3.28;;;;;;;;;;5064168;28;20496;-84
2022/06/24 13:38:37;;;;;;;5.35;3.10;;;;;;;;;;5064058;28;20045;-83
2022/06/24 13:41:06;;;;;;;7.18;3.10;;;;;;;;;;5061042;28;20048;-83
2022/06/24 13:43:33;;;;;;;7.30;3.30;;;;;;;;;;5065757;28;20055;-85
2022/06/24 13:46:01;;;;;;;6.75;2.92;;;;;;;;;;5063596;28;20049;-85
2022/06/24 13:48:29;;;;;;;6.32;3.20;;;;;;;;;;5064897;28;20048;-86
2022/06/24 13:50:57;;;;;;;7.63;3.20;;;;;;;;;;5063162;28;20048;-88
2022/06/24 13:53:29;;;;;;;6.63;3.10;;;;;;;;;;5064109;28;20541;-85
2022/06/24 13:55:57;;;;;;;4.78;2.83;;;;;;;;;;5065426;28;20036;-85
2022/06/24 13:58:25;;;;;;;6.13;2.83;;;;;;;;;;5065173;28;20062;-85
2022/06/24 14:01:03;;;;;;;7.55;3.10;;;;;;;;;;5062497;28;20136;-85
2022/06/24 14:04:21;;;;;;;6.75;3.35;;;;;;;;;;5064146;28;20036;-84
2022/06/24 14:06:49;;;;;;;7.78;3.25;;;;;;;;;;5063774;28;20036;-84
2022/06/24 14:09:21;;;;;;;4.38;2.88;;;;;;;;;;5066346;28;20049;-84
2022/06/24 14:11:49;;;;;;;7.38;3.20;;;;;;;;;;5100901;28;20043;-84
2022/06/24 14:14:21;;;;;;;7.30;2.85;;;;;;;;;;5066336;28;20041;-84
2022/06/24 14:16:53;;;;;;;8.48;2.85;;;;;;;;;;5062971;28;20072;-85
2022/06/24 14:20:06;;;;;;;6.95;2.88;;;;;;;;;;5064062;28;20040;-84
2022/06/24 14:22:33;;;;;;;6.85;2.85;;;;;;;;;;5066264;28;20666;-85
2022/06/24 14:25:01;;;;;;;5.07;2.55;;;;;;;;;;5065892;28;20049;-85
2022/06/24 14:27:35;;;;;;;4.95;2.55;;;;;;;;;;5064430;28;20037;-82
2022/06/24 14:30:04;;;;;;;5.45;2.88;;;;;;;;;;5048564;28;20175;-82
2022/06/24 14:32:58;;;;;;;6.82;3.08;;;;;;;;;;5063630;28;20044;-82
2022/06/24 14:35:25;;;;;;;6.45;2.80;;;;;;;;;;5064008;28;20075;-81
2022/06/24 14:40:39;;;;;;;8.27;2.63;;;;;;;;;;5063629;28;20037;-82
2022/06/24 14:43:18;;;;;;;5.50;2.70;;;;;;;;;;5095074;28;20159;-81
2022/06/24 14:45:46;;;;;;;5.80;2.50;;;;;;;;;;5063816;28;20051;-80
2022/06/24 14:48:20;;;;;;;7.80;3.05;;;;;;;;;;5062437;28;20043;-80
2022/06/24 14:50:47;;;;;;;6.75;2.92;;;;;;;;;;5063088;28;20057;-80
2022/06/24 14:53:17;;;;;;;5.95;2.90;;;;;;;;;;5065553;28;20474;-81
2022/06/24 14:56:10;;;;;;;7.47;3.08;;;;;;;;;;5068049;28;20642;-82
2022/06/24 14:58:46;;;;;;;5.45;2.55;;;;;;;;;;5067841;28;20041;-83
2022/06/24 15:01:13;;;;;;;8.10;2.58;;;;;;;;;;5082338;28;20040;-85
2022/06/24 15:04:05;;;;;;;5.97;2.78;;;;;;;;;;5069111;28;20047;-85
2022/06/24 15:06:33;;;;;;;6.30;2.83;;;;;;;;;;5067463;28;20109;-85
2022/06/24 15:09:03;;;;;;;6.00;3.10;;;;;;;;;;5064553;28;20440;-85
2022/06/24 15:11:35;;;;;;;5.53;2.67;;;;;;;;;;5062379;28;20123;-85
2022/06/24 15:14:03;;;;;;;6.88;2.53;;;;;;;;;;5066595;28;20182;-85
2022/06/24 15:16:31;;;;;;;6.35;3.00;;;;;;;;;;5067633;28;20044;-84
2022/06/24 15:18:59;;;;;;;4.80;2.50;;;;;;;;;;5071530;28;20060;-84
2022/06/24 15:21:27;;;;;;;7.38;2.67;;;;;;;;;;5072634;28;20104;-85
2022/06/24 15:23:55;;;;;;;4.88;2.63;;;;;;;;;;5064588;28;20047;-83
2022/06/24 15:26:23;;;;;;;7.55;2.72;;;;;;;;;;5062557;28;20040;-83
2022/06/24 15:28:51;;;;;;;5.15;2.70;;;;;;;;;;5062758;28;20488;-84
2022/06/24 15:31:24;;;;;;;6.65;2.85;;;;;;;;;;5060189;28;20036;-84
2022/06/24 15:33:51;;;;;;;6.10;2.80;;;;;;;;;;5092884;28;20106;-83
2022/06/24 15:36:19;;;;;;;6.18;2.80;;;;;;;;;;5063722;28;20040;-83
2022/06/24 15:38:48;;;;;;;4.38;2.55;;;;;;;;;;5091981;28;20045;-83
2022/06/24 15:41:21;;;;;;;6.00;2.88;;;;;;;;;;5059881;28;20463;-82
2022/06/24 15:44:13;;;;;;;8.02;2.55;;;;;;;;;;5059864;28;20032;-80
2022/06/24 15:46:41;;;;;;;5.50;3.03;;;;;;;;;;5064076;28;20514;-81
2022/06/24 15:49:33;;;;;;;7.97;3.17;;;;;;;;;;5065484;28;20035;-81
2022/06/24 15:52:01;;;;;;;6.30;3.33;;;;;;;;;;5064508;28;20513;-81
2022/06/24 15:54:33;;;;;;;6.07;2.92;;;;;;;;;;5063002;28;20040;-83
2022/06/24 15:57:01;;;;;;;5.35;3.10;;;;;;;;;;5064281;28;20040;-84
2022/06/24 15:59:33;;;;;;;5.53;2.97;;;;;;;;;;5063224;28;20664;-84